Time;durP1;ratioP1;P1;durP2;ratioP2;P2;SDS_P1;SDS_P2;PMS_P1;PMS_P2;Temp;Humidity;BMP_temperature;BMP_pressure;BME280_temperature;BME280_humidity;BME280_pressure;Samples;Min_cycle;Max_cycle;Signal;HPM_P1;HPM_P2
2022/10/22 00:01:16;;;;;;;45.78;21.77;;;;;;;17.28;53.32;102393.16;143717;985;47006;-71
2022/10/22 00:03:43;;;;;;;26.62;13.98;;;;;;;17.25;53.42;102390.84;143716;591;47004;-71
2022/10/22 00:06:09;;;;;;;16.15;10.55;;;;;;;17.26;52.73;102387.09;143715;582;47008;-71
2022/10/22 00:08:36;;;;;;;18.83;10.82;;;;;;;17.25;53.01;102388.12;143713;628;47004;-72
2022/10/22 00:11:28;;;;;;;16.98;10.25;;;;;;;17.25;52.94;102390.84;143717;576;47006;-72
2022/10/22 00:13:54;;;;;;;10.80;7.85;;;;;;;17.24;53.25;102398.16;143716;574;47004;-72
2022/10/22 00:16:21;;;;;;;16.20;9.27;;;;;;;17.23;52.84;102393.75;143716;569;46012;-72
2022/10/22 00:18:47;;;;;;;32.55;13.60;;;;;;;17.23;52.99;102387.50;143714;572;47006;-71
2022/10/22 00:21:14;;;;;;;64.95;28.25;;;;;;;17.18;53.02;102389.97;143717;594;47008;-71
2022/10/22 00:23:41;;;;;;;46.15;21.50;;;;;;;17.16;53.25;102392.06;143718;784;47004;-71
2022/10/22 00:26:08;;;;;;;16.33;10.68;;;;;;;17.12;53.46;102381.59;143717;599;47013;-71
2022/10/22 00:28:34;;;;;;;17.52;10.88;;;;;;;17.11;53.28;102385.38;143714;570;47929;-71
2022/10/22 00:31:01;;;;;;;100.87;42.88;;;;;;;17.10;53.75;102386.41;143719;972;47008;-71
2022/10/22 00:33:29;;;;;;;243.27;104.70;;;;;;;17.07;53.46;102380.53;143717;972;47002;-71
2022/10/22 00:35:55;;;;;;;145.82;64.55;;;;;;;17.07;53.26;102381.38;143718;566;47010;-71
2022/10/22 00:38:22;;;;;;;76.97;35.58;;;;;;;17.05;53.13;102388.88;143714;593;48930;-72
2022/10/22 00:40:48;;;;;;;37.17;20.73;;;;;;;17.05;53.41;102386.16;143718;579;47009;-71
2022/10/22 00:43:17;;;;;;;24.85;14.07;;;;;;;17.05;53.05;102386.16;143715;596;47006;-71
2022/10/22 00:45:44;;;;;;;16.50;10.82;;;;;;;17.06;53.08;102384.28;143714;591;47922;-71
2022/10/22 00:48:22;;;;;;;16.80;10.15;;;;;;;17.01;53.31;102378.63;143714;574;47012;-72
2022/10/22 00:51:00;;;;;;;15.20;8.73;;;;;;;17.02;53.14;102381.12;143718;580;47008;-72
2022/10/22 00:53:35;;;;;;;17.23;9.23;;;;;;;17.03;52.98;102379.28;143718;711;47002;-71
2022/10/22 00:56:01;;;;;;;12.23;8.75;;;;;;;17.03;53.22;102363.81;143718;568;47010;-71
2022/10/22 00:58:34;;;;;;;13.70;8.50;;;;;;;17.03;53.06;102360.28;143714;596;47005;-68
2022/10/22 01:01:14;;;;;;;16.23;9.77;;;;;;;16.99;53.38;102365.25;143718;589;46008;-70
2022/10/22 01:03:45;;;;;;;12.15;9.23;;;;;;;16.99;52.60;102359.81;143721;575;46004;-67
2022/10/22 01:06:18;;;;;;;15.93;8.57;;;;;;;17.00;52.81;102363.38;143717;600;47008;-70
2022/10/22 01:09:16;;;;;;;9.80;7.70;;;;;;;17.02;52.51;102364.03;143714;612;47006;-70
2022/10/22 01:12:19;;;;;;;14.38;7.40;;;;;;;17.01;53.24;102363.16;143717;597;47008;-72
2022/10/22 01:15:06;;;;;;;11.48;7.35;;;;;;;16.99;52.55;102372.56;143715;592;47004;-71
2022/10/22 01:17:52;;;;;;;7.53;6.53;;;;;;;16.98;52.74;102366.28;143718;677;47011;-72
2022/10/22 01:21:13;;;;;;;10.73;6.65;;;;;;;16.97;52.65;102364.59;143717;636;47004;-72
2022/10/22 01:24:07;;;;;;;8.93;6.85;;;;;;;16.97;52.41;102360.03;143717;573;47009;-72
2022/10/22 01:27:43;;;;;;;9.75;7.40;;;;;;;16.95;52.71;102361.25;143718;590;47004;-72
2022/10/22 01:30:13;;;;;;;12.18;7.25;;;;;;;16.91;52.78;102351.81;143716;621;47010;-71
2022/10/22 01:32:55;;;;;;;11.25;7.28;;;;;;;16.86;52.99;102359.72;143715;606;47007;-72
2022/10/22 01:35:33;;;;;;;8.88;6.37;;;;;;;16.83;52.99;102369.13;143716;567;47008;-71
2022/10/22 01:38:02;;;;;;;11.98;6.40;;;;;;;16.78;52.99;102355.28;143718;593;47002;-71
2022/10/22 01:40:31;;;;;;;9.77;6.93;;;;;;;16.75;52.98;102363.84;143717;632;47010;-71
2022/10/22 01:43:06;;;;;;;10.00;6.72;;;;;;;16.72;53.01;102361.50;143716;588;47004;-71
2022/10/22 01:45:43;;;;;;;10.43;6.75;;;;;;;16.71;53.48;102365.25;143715;593;47008;-71
2022/10/22 01:48:59;;;;;;;8.95;6.72;;;;;;;16.71;53.45;102367.97;143716;640;47004;-72
2022/10/22 01:52:15;;;;;;;9.07;6.70;;;;;;;16.65;53.34;102365.03;143717;708;47010;-72
2022/10/22 01:55:21;;;;;;;10.35;7.78;;;;;;;16.65;53.25;102364.19;143714;586;47006;-71
2022/10/22 01:58:20;;;;;;;10.05;6.68;;;;;;;16.62;53.37;102365.44;143717;577;47002;-72
2022/10/22 02:01:15;;;;;;;10.05;6.82;;;;;;;16.64;53.57;102363.38;143717;590;47006;-72
2022/10/22 02:03:54;;;;;;;11.47;7.67;;;;;;;16.63;53.67;102361.69;143718;638;47012;-71
2022/10/22 02:06:24;;;;;;;9.75;6.72;;;;;;;16.68;53.44;102361.91;143716;588;47004;-71
2022/10/22 02:08:53;;;;;;;9.00;7.28;;;;;;;16.73;52.93;102372.19;143716;584;47009;-71
2022/10/22 02:11:20;;;;;;;10.13;6.28;;;;;;;16.76;53.11;102365.50;143716;616;47002;-71
2022/10/22 02:13:50;;;;;;;9.15;6.70;;;;;;;16.76;53.33;102371.78;143718;658;47012;-71
2022/10/22 02:16:28;;;;;;;7.32;6.10;;;;;;;16.76;53.36;102374.50;143716;587;47013;-72
2022/10/22 02:18:57;;;;;;;7.72;6.15;;;;;;;16.76;53.11;102381.78;143718;597;47008;-71
2022/10/22 02:21:24;;;;;;;10.70;5.95;;;;;;;16.76;53.47;102379.94;143715;607;47004;-72
2022/10/22 02:23:50;;;;;;;8.75;5.87;;;;;;;16.75;53.39;102374.69;143719;752;46011;-72
2022/10/22 02:26:29;;;;;;;11.10;6.47;;;;;;;16.75;52.93;102383.69;143716;586;47006;-71
2022/10/22 02:29:35;;;;;;;7.22;6.00;;;;;;;16.75;53.23;102377.41;143722;568;47008;-71
2022/10/22 02:32:05;;;;;;;9.45;5.50;;;;;;;16.67;53.64;102375.69;143717;632;47004;-71
2022/10/22 02:34:32;;;;;;;6.65;4.93;;;;;;;16.70;53.51;102379.84;143717;588;47010;-71
2022/10/22 02:37:01;;;;;;;7.47;6.00;;;;;;;16.70;53.56;102377.16;143718;618;47012;-71
2022/10/22 02:39:29;;;;;;;6.40;5.72;;;;;;;16.69;53.33;102370.91;143717;593;47009;-72
2022/10/22 02:41:56;;;;;;;9.40;5.93;;;;;;;16.67;53.29;102364.81;143718;568;47004;-72
2022/10/22 02:44:23;;;;;;;7.37;5.28;;;;;;;16.66;53.17;102369.44;143719;566;47010;-72
2022/10/22 02:46:50;;;;;;;7.50;5.40;;;;;;;16.68;52.95;102366.50;143715;584;47006;-71
2022/10/22 02:49:16;;;;;;;8.73;5.70;;;;;;;16.65;53.34;102364.19;143718;587;47008;-71
2022/10/22 02:51:43;;;;;;;11.05;6.12;;;;;;;16.63;53.16;102358.13;143715;594;47004;-72
2022/10/22 02:54:09;;;;;;;8.68;6.18;;;;;;;16.61;53.39;102358.31;143718;623;47006;-71
2022/10/22 02:56:35;;;;;;;7.72;5.90;;;;;;;16.61;53.09;102361.03;143716;589;47006;-71
2022/10/22 02:59:02;;;;;;;8.25;5.25;;;;;;;16.59;53.26;102363.09;143719;616;47008;-71
2022/10/22 03:01:28;;;;;;;8.60;5.82;;;;;;;16.57;53.67;102367.06;143717;604;47006;-71
2022/10/22 03:03:54;;;;;;;14.32;6.70;;;;;;;16.52;53.47;102359.50;143719;588;47010;-71
2022/10/22 03:06:21;;;;;;;11.52;6.07;;;;;;;16.51;53.63;102376.81;143717;625;47004;-71
2022/10/22 03:08:47;;;;;;;7.72;5.93;;;;;;;16.50;53.78;102365.13;143719;582;47009;-71
2022/10/22 03:11:14;;;;;;;13.77;6.78;;;;;;;16.52;53.55;102367.62;143716;609;47006;-71
2022/10/22 03:13:40;;;;;;;10.85;6.18;;;;;;;16.49;53.32;102371.59;143717;568;47921;-71
2022/10/22 03:16:07;;;;;;;13.52;6.82;;;;;;;16.45;53.63;102372.19;143717;595;47013;-71
2022/10/22 03:18:33;;;;;;;9.85;6.65;;;;;;;16.40;53.67;102375.50;143717;594;47008;-71
2022/10/22 03:21:12;;;;;;;11.25;6.37;;;;;;;16.39;53.80;102372.97;143717;597;47006;-71
2022/10/22 03:23:41;;;;;;;10.00;6.87;;;;;;;16.38;53.52;102380.28;143717;591;47012;-71
2022/10/22 03:26:09;;;;;;;9.73;6.43;;;;;;;16.35;53.92;102375.25;143716;589;47006;-72
2022/10/22 03:28:37;;;;;;;11.90;6.43;;;;;;;16.33;53.87;102372.72;143719;617;47008;-71
2022/10/22 03:31:04;;;;;;;10.23;6.22;;;;;;;16.35;53.54;102375.25;143717;568;47004;-72
2022/10/22 03:33:30;;;;;;;9.45;6.60;;;;;;;16.33;53.44;102372.72;143717;597;47006;-71
2022/10/22 03:35:57;;;;;;;9.15;6.65;;;;;;;16.29;53.64;102381.44;143716;619;47006;-72
2022/10/22 03:38:24;;;;;;;10.07;6.43;;;;;;;16.28;53.90;102382.47;143718;586;47009;-71
2022/10/22 03:40:50;;;;;;;8.80;7.12;;;;;;;16.25;53.89;102381.00;143717;572;47006;-72
2022/10/22 03:43:17;;;;;;;10.38;6.37;;;;;;;16.24;54.16;102375.78;143715;605;47012;-71
2022/10/22 03:45:43;;;;;;;11.88;6.35;;;;;;;16.25;54.02;102377.44;143718;642;47007;-72
2022/10/22 03:48:09;;;;;;;8.40;6.50;;;;;;;16.22;53.80;102373.25;143718;579;47008;-71
2022/10/22 03:50:36;;;;;;;9.40;6.72;;;;;;;16.23;53.95;102374.12;143718;567;47006;-71
2022/10/22 03:53:03;;;;;;;12.25;6.37;;;;;;;16.18;54.11;102378.25;143716;577;47012;-71
2022/10/22 03:55:30;;;;;;;10.05;6.30;;;;;;;16.18;54.08;102382.81;143716;614;47004;-72
2022/10/22 03:57:56;;;;;;;10.00;7.00;;;;;;;16.18;53.78;102382.81;143719;591;47008;-71
2022/10/22 04:00:22;;;;;;;9.77;6.25;;;;;;;16.19;54.23;102379.06;143717;622;47006;-72
2022/10/22 04:02:49;;;;;;;9.70;6.12;;;;;;;16.21;54.46;102385.13;143718;567;47010;-71
2022/10/22 04:05:15;;;;;;;14.68;6.60;;;;;;;16.21;54.31;102390.56;143717;577;47006;-72
2022/10/22 04:07:42;;;;;;;8.98;6.97;;;;;;;16.21;53.94;102393.28;143718;594;47008;-71
2022/10/22 04:10:08;;;;;;;8.00;6.72;;;;;;;16.23;54.34;102380.34;143716;577;47004;-71
2022/10/22 04:12:35;;;;;;;10.45;7.18;;;;;;;16.27;54.14;102388.94;143720;572;46022;-72
2022/10/22 04:15:01;;;;;;;11.40;6.82;;;;;;;16.26;54.21;102387.25;143716;580;47004;-72
2022/10/22 04:17:33;;;;;;;12.20;6.55;;;;;;;16.24;53.96;102383.94;143716;643;47008;-71
2022/10/22 04:20:00;;;;;;;13.70;6.87;;;;;;;16.25;54.03;102385.56;143714;607;47004;-71
2022/10/22 04:22:27;;;;;;;7.22;6.53;;;;;;;16.23;54.02;102385.78;143716;570;47004;-72
2022/10/22 04:24:53;;;;;;;11.45;6.60;;;;;;;16.20;54.09;102378.87;143717;647;47006;-72
2022/10/22 04:27:19;;;;;;;10.55;6.97;;;;;;;16.15;54.57;102384.03;143717;608;47008;-72
2022/10/22 04:29:45;;;;;;;11.07;6.80;;;;;;;16.13;54.15;102383.41;143716;648;47006;-72
2022/10/22 04:32:12;;;;;;;10.63;7.20;;;;;;;16.11;54.49;102384.62;143717;644;47010;-72
2022/10/22 04:34:38;;;;;;;11.27;7.40;;;;;;;16.11;54.68;102380.03;143716;620;47006;-72
2022/10/22 04:37:05;;;;;;;11.12;6.82;;;;;;;16.12;54.12;102375.47;143719;617;47008;-71
2022/10/22 04:39:31;;;;;;;13.25;6.93;;;;;;;16.09;54.35;102384.81;143718;593;47004;-71
2022/10/22 04:41:57;;;;;;;9.07;6.37;;;;;;;16.12;54.29;102387.16;143717;589;47010;-71
2022/10/22 04:44:24;;;;;;;12.55;6.90;;;;;;;16.16;54.21;102387.59;143716;615;47006;-72
2022/10/22 04:46:50;;;;;;;11.05;6.75;;;;;;;16.18;54.26;102388.22;143719;618;47008;-71
2022/10/22 04:49:17;;;;;;;11.10;6.95;;;;;;;16.19;53.99;102388.06;143717;603;47004;-72
2022/10/22 04:51:43;;;;;;;11.38;7.28;;;;;;;16.20;54.23;102392.44;143714;590;48006;-72
2022/10/22 04:54:09;;;;;;;7.95;6.62;;;;;;;16.19;54.03;102390.75;143714;592;47007;-71
2022/10/22 04:56:36;;;;;;;11.07;7.20;;;;;;;16.19;54.22;102396.19;143719;582;47008;-71
2022/10/22 04:59:05;;;;;;;13.73;7.87;;;;;;;16.17;53.89;102395.53;143720;614;47004;-71
2022/10/22 05:01:36;;;;;;;15.00;6.57;;;;;;;16.14;53.91;102392.37;143719;635;47010;-72
2022/10/22 05:04:05;;;;;;;12.40;7.80;;;;;;;16.12;53.68;102402.59;143719;588;46014;-72
2022/10/22 05:06:32;;;;;;;13.60;8.07;;;;;;;16.09;53.70;102400.25;143718;585;47008;-71
2022/10/22 05:09:02;;;;;;;9.93;7.15;;;;;;;16.09;53.93;102397.53;143718;567;47004;-71
2022/10/22 05:11:32;;;;;;;14.65;7.15;;;;;;;16.10;53.99;102402.75;143717;583;47012;-72
2022/10/22 05:14:01;;;;;;;13.23;7.22;;;;;;;16.09;54.14;102403.78;143715;607;47006;-71
2022/10/22 05:16:29;;;;;;;9.98;7.45;;;;;;;16.09;54.69;102401.09;143719;596;47008;-72
2022/10/22 05:18:57;;;;;;;13.07;7.43;;;;;;;16.12;54.43;102408.00;143721;585;47002;-71
2022/10/22 05:21:23;;;;;;;12.23;7.30;;;;;;;16.11;54.67;102404.44;143716;578;47011;-72
2022/10/22 05:23:50;;;;;;;12.90;7.45;;;;;;;16.13;55.14;102406.97;143717;594;47011;-71
2022/10/22 05:26:24;;;;;;;12.60;7.10;;;;;;;16.12;55.20;102403.41;143719;584;47008;-71
2022/10/22 05:28:51;;;;;;;10.27;6.32;;;;;;;16.16;55.13;102404.72;143714;573;47005;-71
2022/10/22 05:31:18;;;;;;;8.13;6.85;;;;;;;16.20;54.78;102410.56;143717;588;47011;-72
2022/10/22 05:33:45;;;;;;;10.57;7.40;;;;;;;16.25;55.16;102415.41;143720;605;47010;-71
2022/10/22 05:36:14;;;;;;;10.35;6.87;;;;;;;16.29;54.56;102414.84;143718;585;47008;-71
2022/10/22 05:38:40;;;;;;;15.13;10.00;;;;;;;16.39;54.16;102416.34;143718;618;47004;-71
2022/10/22 05:41:14;;;;;;;12.25;9.48;;;;;;;16.46;54.02;102415.38;143716;566;47012;-71
2022/10/22 05:43:40;;;;;;;10.10;9.00;;;;;;;16.55;54.51;102420.69;143718;575;47013;-71
2022/10/22 05:46:10;;;;;;;16.00;10.00;;;;;;;16.60;53.86;102416.31;143719;572;47008;-72
2022/10/22 05:48:36;;;;;;;15.43;10.90;;;;;;;16.67;53.28;102413.66;143719;572;47002;-72
2022/10/22 05:51:09;;;;;;;12.80;9.30;;;;;;;16.73;52.98;102423.72;143718;588;47012;-69
2022/10/22 05:53:38;;;;;;;19.27;9.70;;;;;;;16.77;53.71;102425.00;143718;616;47006;-72
2022/10/22 05:56:07;;;;;;;13.57;9.70;;;;;;;16.82;53.70;102427.94;143716;573;47923;-70
2022/10/22 05:58:35;;;;;;;13.18;9.38;;;;;;;16.87;53.26;102435.50;143716;572;47004;-69
2022/10/22 06:01:04;;;;;;;12.73;8.50;;;;;;;16.91;53.68;102427.81;143718;567;47010;-72
2022/10/22 06:03:33;;;;;;;13.52;9.00;;;;;;;16.94;53.42;102425.53;143716;578;47012;-71
2022/10/22 06:06:01;;;;;;;15.45;9.88;;;;;;;16.97;53.13;102430.59;143716;607;47008;-72
2022/10/22 06:08:29;;;;;;;18.67;12.82;;;;;;;17.03;53.92;102431.66;143719;588;47004;-71
2022/10/22 06:10:56;;;;;;;18.27;12.88;;;;;;;17.08;53.86;102429.19;143717;592;47010;-71
2022/10/22 06:13:23;;;;;;;18.73;12.65;;;;;;;17.12;53.85;102424.19;143716;583;47006;-71
2022/10/22 06:15:51;;;;;;;17.95;12.30;;;;;;;17.15;53.82;102434.66;143717;591;47008;-71
2022/10/22 06:18:18;;;;;;;19.85;12.40;;;;;;;17.20;53.69;102440.34;143716;567;47004;-71
2022/10/22 06:20:46;;;;;;;19.83;12.00;;;;;;;17.25;53.82;102435.12;143718;589;47010;-68
2022/10/22 06:23:14;;;;;;;19.95;11.88;;;;;;;17.30;53.84;102434.50;143718;598;46006;-70
2022/10/22 06:25:42;;;;;;;17.85;10.50;;;;;;;17.35;53.13;102440.19;143720;577;46923;-67
2022/10/22 06:28:08;;;;;;;12.82;10.98;;;;;;;17.43;53.05;102434.59;143721;577;47002;-70
2022/10/22 06:30:37;;;;;;;17.87;10.35;;;;;;;17.51;53.09;102436.31;143714;586;47013;-71
2022/10/22 06:33:03;;;;;;;12.68;9.80;;;;;;;17.58;52.96;102429.00;143717;586;47006;-70
2022/10/22 06:35:30;;;;;;;13.45;9.57;;;;;;;17.67;52.81;102429.66;143718;614;47008;-70
2022/10/22 06:37:56;;;;;;;12.52;9.27;;;;;;;17.72;52.29;102431.78;143717;595;47007;-70
2022/10/22 06:40:23;;;;;;;11.52;8.32;;;;;;;17.80;51.94;102428.03;143718;643;47010;-70
2022/10/22 06:42:49;;;;;;;10.77;8.48;;;;;;;17.88;51.61;102438.69;143717;574;47004;-70
2022/10/22 06:45:16;;;;;;;14.25;8.82;;;;;;;17.96;51.69;102437.66;143719;627;47009;-70
2022/10/22 06:47:42;;;;;;;11.98;8.18;;;;;;;18.06;51.75;102438.16;143717;592;47006;-70
2022/10/22 06:50:09;;;;;;;14.63;9.88;;;;;;;18.17;51.72;102436.72;143716;594;47010;-70
2022/10/22 06:52:35;;;;;;;18.33;9.05;;;;;;;18.27;51.56;102445.28;143716;868;47006;-70
2022/10/22 06:55:02;;;;;;;11.75;8.40;;;;;;;18.34;51.55;102442.56;143717;579;47008;-71
2022/10/22 06:57:29;;;;;;;9.77;8.40;;;;;;;18.39;51.83;102448.22;143719;586;47002;-70
2022/10/22 06:59:55;;;;;;;11.05;8.68;;;;;;;18.48;51.89;102443.41;143715;593;47011;-70
2022/10/22 07:02:22;;;;;;;13.18;7.80;;;;;;;18.55;52.10;102451.56;143714;588;47006;-70
2022/10/22 07:04:48;;;;;;;10.77;7.37;;;;;;;18.62;52.25;102446.97;143714;577;47008;-69
2022/10/22 07:07:14;;;;;;;9.70;7.68;;;;;;;18.69;51.76;102445.06;143717;612;47004;-70
2022/10/22 07:09:44;;;;;;;15.82;8.27;;;;;;;18.79;52.15;102450.94;143717;578;46010;-70
2022/10/22 07:12:11;;;;;;;17.67;7.15;;;;;;;18.86;51.40;102460.97;143714;598;47006;-71
2022/10/22 07:14:37;;;;;;;13.98;8.02;;;;;;;18.94;50.94;102452.59;143715;653;47009;-70
2022/10/22 07:17:04;;;;;;;11.90;8.43;;;;;;;19.00;50.88;102462.62;143719;597;46012;-70
2022/10/22 07:19:30;;;;;;;12.52;8.95;;;;;;;19.09;50.79;102452.34;143714;569;47012;-70
2022/10/22 07:21:56;;;;;;;17.33;9.90;;;;;;;19.17;50.55;102446.69;143714;567;47002;-70
2022/10/22 07:24:23;;;;;;;16.98;9.98;;;;;;;19.20;50.01;102449.00;143717;576;47006;-71
2022/10/22 07:26:49;;;;;;;17.98;12.60;;;;;;;19.27;50.23;102448.97;143716;874;47002;-70
2022/10/22 07:29:16;;;;;;;20.90;14.23;;;;;;;19.36;51.29;102455.03;143716;567;47009;-71
2022/10/22 07:31:43;;;;;;;27.95;16.87;;;;;;;19.41;50.43;102438.88;143715;702;47004;-70
2022/10/22 07:34:09;;;;;;;32.83;18.58;;;;;;;19.51;50.44;102435.66;143717;593;47006;-72
2022/10/22 07:36:36;;;;;;;26.33;19.12;;;;;;;19.58;50.47;102441.09;143716;569;47002;-72
2022/10/22 07:39:03;;;;;;;37.47;18.25;;;;;;;19.66;50.06;102443.56;143714;596;47011;-72
2022/10/22 07:41:30;;;;;;;24.65;16.05;;;;;;;19.77;50.37;102434.69;143714;972;47004;-72
2022/10/22 07:43:57;;;;;;;27.02;16.62;;;;;;;19.87;50.53;102436.09;143716;934;47007;-70
2022/10/22 07:46:24;;;;;;;24.00;17.00;;;;;;;19.95;49.87;102430.41;143715;606;47004;-70
2022/10/22 07:48:51;;;;;;;31.10;17.12;;;;;;;20.02;49.71;102431.22;143716;572;47008;-71
2022/10/22 07:51:17;;;;;;;20.67;13.18;;;;;;;20.10;49.52;102425.50;143714;844;47004;-70
2022/10/22 07:53:44;;;;;;;19.17;13.23;;;;;;;20.18;49.33;102426.28;143715;572;47006;-71
2022/10/22 07:56:13;;;;;;;17.67;11.38;;;;;;;20.26;49.47;102439.66;143716;644;47002;-71
2022/10/22 07:58:40;;;;;;;14.15;9.70;;;;;;;20.37;48.72;102428.00;143715;672;47010;-70
2022/10/22 08:01:07;;;;;;;12.48;8.98;;;;;;;20.46;48.00;102417.66;143714;904;47004;-71
2022/10/22 08:03:33;;;;;;;11.98;7.28;;;;;;;20.52;48.32;102422.22;143717;824;46006;-71
2022/10/22 08:06:00;;;;;;;11.82;8.38;;;;;;;20.59;48.83;102416.69;143714;598;47002;-71
2022/10/22 08:08:28;;;;;;;15.55;8.25;;;;;;;20.69;48.35;102417.00;143712;619;47011;-70
2022/10/22 08:10:57;;;;;;;11.65;6.68;;;;;;;20.79;47.55;102413.78;143716;704;47004;-70
2022/10/22 08:13:25;;;;;;;14.18;8.15;;;;;;;20.87;47.59;102416.25;143712;980;48002;-70
2022/10/22 08:15:51;;;;;;;12.48;7.68;;;;;;;21.03;47.88;102419.44;143716;683;47004;-71
2022/10/22 08:18:17;;;;;;;10.18;6.75;;;;;;;21.16;47.20;102418.44;143716;716;47008;-70
2022/10/22 08:20:44;;;;;;;11.65;6.60;;;;;;;21.29;46.78;102421.00;143714;639;47004;-71
2022/10/22 08:23:10;;;;;;;8.75;5.37;;;;;;;21.37;45.97;102411.66;143717;589;47006;-70
2022/10/22 08:25:37;;;;;;;9.07;6.85;;;;;;;21.47;46.51;102409.22;143712;589;47002;-70
2022/10/22 08:28:03;;;;;;;10.32;6.32;;;;;;;21.56;45.12;102417.91;143717;573;47008;-69
2022/10/22 08:30:29;;;;;;;10.80;6.15;;;;;;;21.60;44.46;102415.59;143714;795;47004;-69
2022/10/22 08:32:56;;;;;;;9.80;5.70;;;;;;;21.69;44.91;102413.37;143716;614;47006;-69
2022/10/22 08:35:22;;;;;;;10.05;5.85;;;;;;;21.77;45.36;102415.78;143716;598;47002;-71
2022/10/22 08:37:49;;;;;;;14.80;8.60;;;;;;;21.87;44.94;102412.47;143716;597;47008;-70
2022/10/22 08:40:24;;;;;;;11.23;6.68;;;;;;;21.94;43.32;102413.22;143716;745;47008;-70
2022/10/22 08:43:28;;;;;;;9.70;6.20;;;;;;;22.10;43.50;102417.16;143716;591;47006;-71
2022/10/22 08:46:32;;;;;;;8.57;6.37;;;;;;;22.26;42.79;102421.12;143713;632;47004;-70
2022/10/22 08:49:02;;;;;;;11.57;6.15;;;;;;;22.39;42.25;102422.81;143715;626;47008;-71
2022/10/22 08:51:39;;;;;;;11.52;5.40;;;;;;;22.48;42.51;102417.84;143718;585;46009;-71
2022/10/22 08:54:26;;;;;;;9.07;5.40;;;;;;;22.56;42.23;102421.06;143716;575;47006;-71
2022/10/22 08:57:12;;;;;;;10.40;5.95;;;;;;;22.66;41.77;102411.41;143716;580;47002;-71
2022/10/22 09:00:05;;;;;;;9.57;5.65;;;;;;;22.74;41.58;102415.69;143714;583;47008;-71
2022/10/22 09:03:20;;;;;;;13.10;5.45;;;;;;;22.83;41.48;102411.53;143715;582;47004;-71
2022/10/22 09:06:23;;;;;;;8.27;4.68;;;;;;;23.15;41.12;102408.38;143718;574;47007;-69
2022/10/22 09:08:51;;;;;;;9.70;5.95;;;;;;;23.51;41.13;102405.53;143716;568;47004;-68
2022/10/22 09:11:35;;;;;;;9.02;5.80;;;;;;;23.90;40.08;102402.94;143715;579;47010;-68
2022/10/22 09:14:03;;;;;;;13.05;6.15;;;;;;;24.60;38.50;102402.72;143711;689;48013;-69
2022/10/22 09:17:08;;;;;;;11.65;6.18;;;;;;;28.58;31.70;102403.28;143717;573;47006;-69
2022/10/22 09:20:22;;;;;;;9.02;5.65;;;;;;;32.76;25.19;102385.81;143717;592;47000;-69
2022/10/22 09:23:12;;;;;;;11.20;5.70;;;;;;;35.17;22.40;102395.06;143715;681;47011;-69
2022/10/22 09:25:39;;;;;;;9.52;6.03;;;;;;;36.63;20.71;102395.41;143715;701;47002;-70
2022/10/22 09:28:08;;;;;;;10.30;5.80;;;;;;;37.33;19.58;102385.72;143718;567;46006;-70
2022/10/22 09:30:37;;;;;;;8.85;6.10;;;;;;;37.86;18.88;102380.41;143715;702;47002;-70
2022/10/22 09:33:26;;;;;;;8.52;6.87;;;;;;;39.01;17.76;102378.94;143715;684;47010;-70
2022/10/22 09:36:02;;;;;;;7.47;4.95;;;;;;;39.76;16.77;102371.03;143712;583;47004;-70
2022/10/22 09:38:32;;;;;;;13.95;6.18;;;;;;;40.04;16.54;102367.31;143715;580;47006;-70
2022/10/22 09:41:02;;;;;;;10.10;6.12;;;;;;;39.21;17.28;102360.22;143715;592;47002;-70
2022/10/22 09:43:28;;;;;;;9.85;5.28;;;;;;;35.95;20.85;102366.22;143717;589;47009;-69
2022/10/22 09:45:57;;;;;;;9.10;5.95;;;;;;;33.92;23.27;102357.84;143712;591;47004;-69
2022/10/22 09:48:36;;;;;;;8.43;5.55;;;;;;;32.96;25.51;102347.59;143715;592;47006;-69
2022/10/22 09:51:19;;;;;;;8.73;5.62;;;;;;;32.66;25.51;102349.84;143714;568;47002;-69
2022/10/22 09:53:55;;;;;;;7.78;5.68;;;;;;;35.65;22.20;102352.13;143717;608;47008;-70
2022/10/22 09:56:41;;;;;;;12.48;5.95;;;;;;;38.31;19.08;102349.84;143715;615;47004;-70
2022/10/22 09:59:15;;;;;;;7.85;5.45;;;;;;;37.66;19.49;102342.03;143718;569;47007;-69
2022/10/22 10:01:41;;;;;;;;;;;;;;;35.50;22.10;102344.28;143721;984;47004;-70
2022/10/22 10:04:10;;;;;;;8.88;7.05;;;;;;;33.70;23.88;102343.59;143725;639;47010;-71
2022/10/22 10:06:39;;;;;;;9.18;6.05;;;;;;;32.59;25.69;102330.81;143712;573;47004;-70
2022/10/22 10:09:26;;;;;;;9.90;6.75;;;;;;;31.72;26.48;102328.56;143715;572;47006;-70
2022/10/22 10:12:37;;;;;;;10.43;7.80;;;;;;;31.05;27.40;102323.19;143715;617;47002;-69
2022/10/22 10:15:35;;;;;;;11.38;6.97;;;;;;;30.39;28.68;102319.00;143712;586;47922;-70
2022/10/22 10:18:50;;;;;;;11.15;6.55;;;;;;;29.78;29.15;102307.44;143713;661;47004;-70
2022/10/22 10:22:01;;;;;;;10.43;6.87;;;;;;;29.14;30.41;102312.06;143717;596;47006;-69
2022/10/22 10:25:13;;;;;;;13.65;7.80;;;;;;;28.63;31.81;102302.06;143716;596;47002;-71
2022/10/22 10:28:07;;;;;;;11.10;7.18;;;;;;;28.25;32.08;102289.50;143718;576;46010;-71
2022/10/22 10:30:42;;;;;;;12.05;7.82;;;;;;;28.03;32.75;102283.47;143713;633;47004;-72
2022/10/22 10:33:32;;;;;;;12.60;7.20;;;;;;;27.81;32.80;102281.84;143717;651;47006;-69
2022/10/22 10:36:38;;;;;;;12.93;8.10;;;;;;;27.61;32.99;102277.19;143714;589;47004;-71
2022/10/22 10:39:57;;;;;;;7.87;6.30;;;;;;;27.51;33.62;102275.25;143715;570;47008;-72
2022/10/22 10:42:40;;;;;;;10.65;6.90;;;;;;;27.39;34.00;102265.25;143715;594;47002;-72
2022/10/22 10:45:43;;;;;;;12.07;7.80;;;;;;;27.36;34.15;102265.81;143715;622;47000;-72
2022/10/22 10:48:46;;;;;;;11.38;8.23;;;;;;;27.29;33.49;102257.00;143717;585;47006;-71
2022/10/22 10:51:49;;;;;;;10.00;7.30;;;;;;;27.19;34.09;102245.94;143716;633;47002;-71
2022/10/22 10:54:45;;;;;;;10.55;8.20;;;;;;;27.09;34.49;102247.59;143715;590;47002;-71
2022/10/22 10:57:45;;;;;;;12.40;6.93;;;;;;;27.07;34.76;102241.53;143714;570;47008;-72
2022/10/22 11:00:19;;;;;;;10.40;7.35;;;;;;;26.98;35.46;102239.56;143715;620;47006;-71
2022/10/22 11:03:22;;;;;;;11.10;7.12;;;;;;;26.90;35.29;102228.00;143714;590;47012;-71
2022/10/22 11:05:58;;;;;;;9.30;6.22;;;;;;;26.75;35.66;102219.66;143716;589;47004;-71
2022/10/22 11:08:35;;;;;;;8.55;6.53;;;;;;;26.47;36.18;102225.38;143717;603;47008;-71
2022/10/22 11:11:22;;;;;;;13.00;6.50;;;;;;;26.21;36.62;102218.91;143717;616;47004;-71
2022/10/22 11:14:14;;;;;;;10.82;6.45;;;;;;;26.17;36.28;102210.38;143715;618;47010;-71
2022/10/22 11:17:22;;;;;;;7.93;6.60;;;;;;;26.20;36.83;102208.19;143714;626;47006;-72
2022/10/22 11:20:03;;;;;;;8.32;6.90;;;;;;;26.07;37.03;102210.31;143714;596;47003;-72
2022/10/22 11:22:43;;;;;;;11.48;6.28;;;;;;;26.10;36.81;102204.25;143717;587;47006;-72
2022/10/22 11:25:21;;;;;;;8.90;6.47;;;;;;;25.84;37.20;102193.09;143716;590;47008;-72
2022/10/22 11:28:12;;;;;;;12.43;7.10;;;;;;;25.96;37.67;102190.13;143715;592;47006;-71
2022/10/22 11:30:43;;;;;;;8.45;6.43;;;;;;;25.92;37.07;102189.00;143716;626;47008;-72
2022/10/22 11:33:20;;;;;;;11.38;6.55;;;;;;;25.98;37.12;102192.63;143717;572;47002;-73
2022/10/22 11:35:47;;;;;;;8.40;6.60;;;;;;;25.85;37.77;102177.44;143716;642;47013;-72
2022/10/22 11:38:17;;;;;;;9.85;5.60;;;;;;;25.67;38.42;102186.94;143712;633;47006;-71
2022/10/22 11:40:53;;;;;;;15.20;5.97;;;;;;;25.55;37.95;102185.22;143717;600;47008;-72
2022/10/22 11:43:32;;;;;;;10.68;6.35;;;;;;;25.64;37.89;102179.22;143716;619;47007;-72
2022/10/22 11:46:53;;;;;;;8.02;5.80;;;;;;;25.48;38.14;102168.09;143714;590;47010;-73
2022/10/22 11:49:27;;;;;;;12.60;6.50;;;;;;;25.34;39.16;102167.69;143715;573;47004;-70
2022/10/22 11:52:25;;;;;;;9.30;5.72;;;;;;;25.43;38.25;102168.91;143716;608;47008;-71